^^
Your Local Weather - Clay, NY Station Historical Data
Daily Summary for February 25, 2017 Units:  English    Metric   Both
« Previous Day
Next Day »
Daily Weekly Monthly Yearly Custom
  High: Low: Average:
Temperature: 66.0 °F 32.8 °F 51.1 °F
Dew Point: 54.7 °F 23.5 °F 43.5 °F
Humidity: 90% 62% 76%
Wind Speed: 10.0mph 0.0mph 4.7mph
Wind Gust: 20.0mph - -
Wind- - SW
Pressure: 29.70 in 29.34 in -
Precipitation: 0.45 in    
Historical Graphs
 
 
Tabular Data for February 25, 2017
Time Temperature Dew Point Pressure Wind Wind Speed Wind Gust Humidity Rainfall Rate (Hourly) solar
00:00 63.5 °F 51.1 °F 29.58 in South 7.0 mph 11.0 mph 64% 0.00 in 0 W/m2
00:05 63.3 °F 50.9 °F 29.58 in South 7.0 mph 11.0 mph 64% 0.00 in 0 W/m2
00:12 63.3 °F 51.3 °F 29.58 in SSE 7.0 mph 7.0 mph 65% 0.00 in 0 W/m2
00:18 63.2 °F 51.2 °F 29.57 in SSE 6.0 mph 9.0 mph 65% 0.00 in 0 W/m2
00:24 63.0 °F 51.0 °F 29.57 in South 6.0 mph 6.0 mph 65% 0.00 in 0 W/m2
00:30 63.0 °F 51.0 °F 29.57 in South 7.0 mph 7.0 mph 65% 0.00 in 0 W/m2
00:35 62.8 °F 50.9 °F 29.57 in SSW 7.0 mph 14.0 mph 65% 0.00 in 0 W/m2
00:42 62.8 °F 50.9 °F 29.57 in SSW 8.0 mph 8.0 mph 65% 0.00 in 0 W/m2
00:48 62.7 °F 50.8 °F 29.57 in SSE 8.0 mph 8.0 mph 65% 0.00 in 0 W/m2
00:54 62.8 °F 50.9 °F 29.57 in South 8.0 mph 13.0 mph 65% 0.00 in 0 W/m2
00:59 62.5 °F 50.6 °F 29.56 in SE 7.0 mph 11.0 mph 65% 0.00 in 0 W/m2
01:05 62.5 °F 51.0 °F 29.56 in SSW 8.0 mph 12.0 mph 66% 0.00 in 0 W/m2
01:12 62.3 °F 50.8 °F 29.55 in SSW 8.0 mph 8.0 mph 66% 0.00 in 0 W/m2
01:18 62.2 °F 50.7 °F 29.55 in South 7.0 mph 15.0 mph 66% 0.00 in 0 W/m2
01:24 62.4 °F 50.9 °F 29.55 in SE 8.0 mph 14.0 mph 66% 0.00 in 0 W/m2
01:29 62.3 °F 50.8 °F 29.55 in South 8.0 mph 8.0 mph 66% 0.00 in 0 W/m2
01:36 62.3 °F 50.8 °F 29.55 in SSW 8.0 mph 10.0 mph 66% 0.00 in 0 W/m2
01:42 62.2 °F 50.7 °F 29.55 in SSE 8.0 mph 11.0 mph 66% 0.00 in 0 W/m2
01:48 62.3 °F 50.8 °F 29.55 in SSE 9.0 mph 11.0 mph 66% 0.00 in 0 W/m2
01:54 62.1 °F 50.6 °F 29.55 in SSE 8.0 mph 11.0 mph 66% 0.00 in 0 W/m2
01:59 62.1 °F 50.6 °F 29.55 in SE 7.0 mph 10.0 mph 66% 0.00 in 0 W/m2
02:05 62.2 °F 50.7 °F 29.54 in SSE 8.0 mph 11.0 mph 66% 0.00 in 0 W/m2
02:12 62.0 °F 50.9 °F 29.54 in SW 8.0 mph 8.0 mph 67% 0.00 in 0 W/m2
02:18 61.8 °F 50.7 °F 29.54 in South 7.0 mph 11.0 mph 67% 0.00 in 0 W/m2
02:24 61.8 °F 50.7 °F 29.54 in South 8.0 mph 14.0 mph 67% 0.00 in 0 W/m2
02:30 61.8 °F 51.1 °F 29.54 in SSE 7.0 mph 7.0 mph 68% 0.00 in 0 W/m2
02:35 61.7 °F 51.0 °F 29.54 in SW 7.0 mph 8.0 mph 68% 0.00 in 0 W/m2
02:42 61.6 °F 50.9 °F 29.53 in SSE 7.0 mph 10.0 mph 68% 0.00 in 0 W/m2
02:48 61.5 °F 50.8 °F 29.53 in SE 7.0 mph 10.0 mph 68% 0.00 in 0 W/m2
02:53 61.5 °F 51.2 °F 29.53 in SSE 7.0 mph 15.0 mph 69% 0.00 in 0 W/m2
02:59 61.5 °F 51.2 °F 29.52 in South 8.0 mph 8.0 mph 69% 0.00 in 0 W/m2
03:05 61.3 °F 51.0 °F 29.52 in SW 8.0 mph 10.0 mph 69% 0.00 in 0 W/m2
03:12 61.3 °F 51.0 °F 29.52 in South 7.0 mph 7.0 mph 69% 0.00 in 0 W/m2
03:18 61.2 °F 51.3 °F 29.52 in SSE 7.0 mph 10.0 mph 70% 0.00 in 0 W/m2
03:24 61.4 °F 51.5 °F 29.52 in South 8.0 mph 13.0 mph 70% 0.00 in 0 W/m2
03:29 61.4 °F 51.5 °F 29.52 in South 9.0 mph 12.0 mph 70% 0.00 in 0 W/m2
03:36 61.3 °F 51.4 °F 29.52 in South 9.0 mph 12.0 mph 70% 0.00 in 0 W/m2
03:42 61.1 °F 51.2 °F 29.52 in SSE 8.0 mph 8.0 mph 70% 0.00 in 0 W/m2
03:48 61.2 °F 51.3 °F 29.52 in SSW 8.0 mph 10.0 mph 70% 0.00 in 0 W/m2
03:53 61.3 °F 51.4 °F 29.52 in South 9.0 mph 14.0 mph 70% 0.00 in 0 W/m2
04:00 61.2 °F 51.7 °F 29.52 in South 8.0 mph 8.0 mph 71% 0.00 in 0 W/m2
04:06 61.3 °F 51.8 °F 29.52 in SSW 8.0 mph 10.0 mph 71% 0.00 in 0 W/m2
04:12 61.1 °F 51.6 °F 29.51 in SSE 7.0 mph 8.0 mph 71% 0.00 in 0 W/m2
04:18 61.1 °F 51.6 °F 29.51 in SSE 7.0 mph 8.0 mph 71% 0.00 in 0 W/m2
04:24 61.1 °F 52.0 °F 29.51 in SSE 7.0 mph 9.0 mph 72% 0.00 in 0 W/m2
04:29 60.8 °F 51.7 °F 29.51 in SW 6.0 mph 6.0 mph 72% 0.00 in 0 W/m2
04:36 60.8 °F 51.7 °F 29.51 in SSE 5.0 mph 7.0 mph 72% 0.00 in 0 W/m2
04:42 61.1 °F 52.0 °F 29.51 in South 6.0 mph 6.0 mph 72% 0.00 in 0 W/m2
04:48 61.2 °F 52.1 °F 29.51 in South 6.0 mph 7.0 mph 72% 0.00 in 0 W/m2
04:53 61.2 °F 52.1 °F 29.50 in South 6.0 mph 8.0 mph 72% 0.00 in 0 W/m2
05:00 61.3 °F 52.2 °F 29.50 in South 6.0 mph 7.0 mph 72% 0.00 in 0 W/m2
05:06 61.4 °F 52.3 °F 29.50 in South 6.0 mph 10.0 mph 72% 0.00 in 0 W/m2
05:12 61.5 °F 52.4 °F 29.50 in South 6.0 mph 6.0 mph 72% 0.00 in 0 W/m2
05:18 61.5 °F 52.4 °F 29.49 in SSE 6.0 mph 6.0 mph 72% 0.00 in 0 W/m2
05:24 61.4 °F 52.3 °F 29.49 in South 6.0 mph 6.0 mph 72% 0.00 in 0 W/m2
05:29 61.4 °F 52.3 °F 29.49 in SSE 6.0 mph 6.0 mph 72% 0.00 in 0 W/m2
05:36 61.6 °F 52.5 °F 29.49 in South 6.0 mph 10.0 mph 72% 0.00 in 0 W/m2
05:42 61.6 °F 52.5 °F 29.50 in SW 5.0 mph 6.0 mph 72% 0.00 in 0 W/m2
05:48 61.7 °F 52.6 °F 29.50 in SSW 5.0 mph 7.0 mph 72% 0.00 in 0 W/m2
05:53 61.9 °F 52.8 °F 29.50 in SW 6.0 mph 7.0 mph 72% 0.00 in 0 W/m2
06:00 61.7 °F 52.6 °F 29.50 in South 6.0 mph 6.0 mph 72% 0.00 in 0 W/m2
06:06 61.6 °F 52.5 °F 29.50 in SSW 4.0 mph 6.0 mph 72% 0.00 in 0 W/m2
06:12 61.7 °F 52.6 °F 29.50 in SW 3.0 mph 3.0 mph 72% 0.00 in 0 W/m2
06:18 61.6 °F 52.5 °F 29.50 in SSW 3.0 mph 4.0 mph 72% 0.00 in 0 W/m2
06:24 61.5 °F 52.4 °F 29.50 in SSW 3.0 mph 4.0 mph 72% 0.00 in 0 W/m2
06:30 61.4 °F 52.7 °F 29.50 in SW 2.0 mph 4.0 mph 73% 0.00 in 0 W/m2
06:35 61.3 °F 52.6 °F 29.50 in South 2.0 mph 5.0 mph 73% 0.00 in 0 W/m2
06:42 61.3 °F 52.6 °F 29.50 in South 1.0 mph 3.0 mph 73% 0.00 in 0 W/m2
06:48 61.0 °F 52.3 °F 29.50 in Calm   3.0 mph 73% 0.00 in 0 W/m2
06:54 60.9 °F 52.2 °F 29.50 in Calm     73% 0.00 in 0 W/m2
06:59 60.7 °F 52.4 °F 29.50 in Calm     74% 0.00 in 7 W/m2
07:06 60.3 °F 52.0 °F 29.50 in Calm     74% 0.00 in 11 W/m2
07:12 59.8 °F 51.9 °F 29.50 in Calm     75% 0.00 in 9 W/m2
07:18 59.5 °F 51.6 °F 29.50 in Calm     75% 0.00 in 14 W/m2
07:24 58.5 °F 51.3 °F 29.50 in Calm     77% 0.00 in 25 W/m2
07:29 58.0 °F 51.2 °F 29.50 in Calm     78% 0.00 in 40 W/m2
07:35 57.7 °F 51.6 °F 29.50 in Calm     80% 0.00 in 28 W/m2
07:42 57.6 °F 51.5 °F 29.49 in Calm     80% 0.00 in 19 W/m2
07:48 57.6 °F 51.8 °F 29.49 in Calm     81% 0.00 in 19 W/m2
07:54 57.6 °F 51.8 °F 29.49 in Calm     81% 0.00 in 49 W/m2
07:59 57.7 °F 51.9 °F 29.49 in Calm     81% 0.00 in 90 W/m2
08:05 57.9 °F 52.4 °F 29.48 in Calm     82% 0.00 in 135 W/m2
08:12 59.4 °F 53.6 °F 29.48 in Calm     81% 0.00 in 111 W/m2
08:18 61.1 °F 53.8 °F 29.47 in SSW 1.0 mph 1.0 mph 77% 0.00 in 109 W/m2
08:24 61.9 °F 53.9 °F 29.47 in SSW 1.0 mph 3.0 mph 75% 0.00 in 183 W/m2
08:30 62.8 °F 54.0 °F 29.47 in South 1.0 mph 1.0 mph 73% 0.00 in 153 W/m2
08:35 63.3 °F 54.1 °F 29.47 in South 2.0 mph 3.0 mph 72% 0.00 in 98 W/m2
08:42 63.5 °F 54.3 °F 29.46 in SSE 2.0 mph 6.0 mph 72% 0.00 in 76 W/m2
08:48 63.6 °F 54.0 °F 29.46 in SSE 2.0 mph 6.0 mph 71% 0.00 in 76 W/m2
08:54 63.8 °F 53.8 °F 29.45 in South 3.0 mph 9.0 mph 70% 0.00 in 60 W/m2
08:59 64.0 °F 54.0 °F 29.45 in South 4.0 mph 4.0 mph 70% 0.00 in 69 W/m2
09:05 64.2 °F 54.2 °F 29.45 in SSW 4.0 mph 7.0 mph 70% 0.00 in 83 W/m2
09:12 64.3 °F 53.9 °F 29.45 in South 3.0 mph 4.0 mph 69% 0.00 in 49 W/m2
09:18 64.4 °F 54.0 °F 29.44 in SSE 4.0 mph 7.0 mph 69% 0.00 in 74 W/m2
09:24 64.7 °F 53.9 °F 29.44 in SSE 5.0 mph 9.0 mph 68% 0.00 in 86 W/m2
09:30 65.0 °F 54.2 °F 29.44 in SSW 5.0 mph 13.0 mph 68% 0.00 in 174 W/m2
09:35 65.2 °F 54.0 °F 29.43 in SSE 6.0 mph 13.0 mph 67% 0.00 in 134 W/m2
09:42 65.2 °F 54.0 °F 29.43 in South 5.0 mph 6.0 mph 67% 0.00 in 93 W/m2
09:48 65.1 °F 53.9 °F 29.43 in SSE 6.0 mph 6.0 mph 67% 0.00 in 46 W/m2
09:53 64.8 °F 54.0 °F 29.43 in SSE 6.0 mph 10.0 mph 68% 0.00 in 44 W/m2
09:59 64.6 °F 54.2 °F 29.42 in SSW 5.0 mph 5.0 mph 69% 0.00 in 60 W/m2
10:06 64.7 °F 54.3 °F 29.42 in South 5.0 mph 10.0 mph 69% 0.00 in 62 W/m2
10:12 64.7 °F 53.9 °F 29.42 in SSE 6.0 mph 8.0 mph 68% 0.00 in 121 W/m2
10:18 65.0 °F 54.6 °F 29.41 in SSE 6.0 mph 12.0 mph 69% 0.00 in 146 W/m2
10:23 65.1 °F 54.3 °F 29.41 in SSE 7.0 mph 11.0 mph 68% 0.00 in 58 W/m2
10:29 65.0 °F 54.2 °F 29.41 in South 8.0 mph 8.0 mph 68% 0.00 in 65 W/m2
10:36 65.1 °F 54.3 °F 29.41 in SSE 9.0 mph 10.0 mph 68% 0.00 in 46 W/m2
10:42 65.0 °F 54.2 °F 29.40 in SE 8.0 mph 13.0 mph 68% 0.00 in 135 W/m2
10:58 65.4 °F 53.7 °F 29.40 in SSE 8.0 mph 11.0 mph 66% 0.00 in 107 W/m2
11:14 65.9 °F 53.8 °F 29.39 in South 8.0 mph 8.0 mph 65% 0.00 in 100 W/m2
11:19 65.9 °F 53.8 °F 29.37 in SSE 7.0 mph 11.0 mph 65% 0.00 in 151 W/m2
11:25 65.9 °F 53.8 °F 29.37 in South 9.0 mph 9.0 mph 65% 0.00 in 49 W/m2
11:32 65.7 °F 53.6 °F 29.36 in SSE 9.0 mph 9.0 mph 65% 0.00 in 56 W/m2
11:38 65.8 °F 53.3 °F 29.35 in SSW 10.0 mph 20.0 mph 64% 0.00 in 144 W/m2
11:43 66.0 °F 53.5 °F 29.35 in SSW 10.0 mph 10.0 mph 64% 0.00 in 137 W/m2
11:49 65.8 °F 53.7 °F 29.34 in SSE 10.0 mph 10.0 mph 65% 0.00 in 54 W/m2
11:55 65.5 °F 53.8 °F 29.34 in SSE 9.0 mph 9.0 mph 66% 0.00 in 32 W/m2
12:02 65.4 °F 53.7 °F 29.35 in East 8.0 mph 17.0 mph 66% 0.00 in 23 W/m2
12:08 65.1 °F 53.5 °F 29.35 in SW 10.0 mph 17.0 mph 66% 0.00 in 16 W/m2
12:13 63.9 °F 54.7 °F 29.36 in SSW 7.0 mph 13.0 mph 72% 0.43 in 32 W/m2
12:18 62.0 °F 54.7 °F 29.36 in SSE 9.0 mph 13.0 mph 77% 0.10 in 32 W/m2
12:23 61.2 °F 54.3 °F 29.37 in South 10.0 mph 12.0 mph 78% 0.07 in 26 W/m2
12:29 60.6 °F 54.0 °F 29.37 in South 10.0 mph 14.0 mph 79% 0.07 in 16 W/m2
12:35 60.0 °F 53.8 °F 29.37 in SSW 9.0 mph 14.0 mph 80% 0.05 in 25 W/m2
12:42 59.7 °F 53.2 °F 29.37 in SSW 7.0 mph 8.0 mph 79% 0.05 in 47 W/m2
12:48 59.3 °F 52.8 °F 29.37 in WSW 6.0 mph 10.0 mph 79% 0.04 in 39 W/m2
12:53 58.9 °F 52.4 °F 29.39 in WSW 6.0 mph 7.0 mph 79% 0.24 in 23 W/m2
12:59 53.4 °F 45.7 °F 29.41 in WNW 6.0 mph 6.0 mph 75% 0.33 in 14 W/m2
13:05 49.2 °F 43.9 °F 29.43 in NW 6.0 mph 6.0 mph 82% 0.29 in 18 W/m2
13:11 47.6 °F 43.6 °F 29.41 in NW 5.0 mph 12.0 mph 86% 0.28 in 44 W/m2
13:18 47.0 °F 43.3 °F 29.41 in WNW 5.0 mph 12.0 mph 87% 0.09 in 121 W/m2
13:23 46.1 °F 42.1 °F 29.41 in WNW 5.0 mph 8.0 mph 86% 0.09 in 171 W/m2
13:29 45.6 °F 41.7 °F 29.44 in WNW 6.0 mph 6.0 mph 86% 0.05 in 26 W/m2
13:35 45.2 °F 41.6 °F 29.44 in WNW 5.0 mph 11.0 mph 87% 0.04 in 23 W/m2
13:42 44.2 °F 40.3 °F 29.44 in NW 6.0 mph 6.0 mph 86% 0.12 in 21 W/m2
13:48 43.3 °F 39.4 °F 29.44 in NW 6.0 mph 7.0 mph 86% 0.15 in 21 W/m2
13:53 42.7 °F 38.8 °F 29.43 in NW 5.0 mph 6.0 mph 86% 0.14 in 19 W/m2
13:59 42.5 °F 38.9 °F 29.45 in WNW 4.0 mph 4.0 mph 87% 0.07 in 18 W/m2
14:05 42.4 °F 38.8 °F 29.46 in WNW 4.0 mph 6.0 mph 87% 0.07 in 25 W/m2
14:12 42.3 °F 38.7 °F 29.47 in West 4.0 mph 6.0 mph 87% 0.06 in 14 W/m2
14:18 42.0 °F 38.1 °F 29.47 in WNW 5.0 mph 6.0 mph 86% 0.09 in 28 W/m2
14:23 41.8 °F 37.9 °F 29.47 in West 5.0 mph 7.0 mph 86% 0.08 in 35 W/m2
14:29 41.7 °F 37.8 °F 29.48 in WNW 4.0 mph 4.0 mph 86% 0.08 in 26 W/m2
14:35 41.5 °F 37.6 °F 29.48 in WNW 4.0 mph 6.0 mph 86% 0.05 in 37 W/m2
14:42 41.3 °F 37.7 °F 29.49 in WNW 4.0 mph 4.0 mph 87% 0.04 in 28 W/m2
14:48 41.2 °F 37.9 °F 29.48 in NW 3.0 mph 4.0 mph 88% 0.04 in 25 W/m2
14:53 41.1 °F 37.8 °F 29.49 in WNW 3.0 mph 6.0 mph 88% 0.07 in 26 W/m2
14:59 41.1 °F 38.1 °F 29.49 in WNW 2.0 mph 2.0 mph 89% 0.05 in 32 W/m2
15:05 41.1 °F 38.1 °F 29.50 in WNW 1.0 mph 4.0 mph 89% 0.04 in 25 W/m2
15:12 41.1 °F 38.1 °F 29.50 in West 3.0 mph 10.0 mph 89% 0.04 in 26 W/m2
15:18 41.1 °F 38.1 °F 29.50 in West 4.0 mph 10.0 mph 89% 0.04 in 21 W/m2
15:23 41.1 °F 38.1 °F 29.50 in WNW 3.0 mph 4.0 mph 89% 0.04 in 23 W/m2
15:29 40.9 °F 37.9 °F 29.51 in WNW 2.0 mph 2.0 mph 89% 0.04 in 25 W/m2
15:35 40.7 °F 37.7 °F 29.51 in WNW 3.0 mph 6.0 mph 89% 0.04 in 21 W/m2
15:42 40.2 °F 36.9 °F 29.52 in WNW 5.0 mph 6.0 mph 88% 0.08 in 28 W/m2
15:48 39.9 °F 36.3 °F 29.52 in WNW 5.0 mph 6.0 mph 87% 0.05 in 18 W/m2
15:53 39.6 °F 36.0 °F 29.53 in NW 4.0 mph 5.0 mph 87% 0.05 in 26 W/m2
15:59 39.2 °F 35.7 °F 29.55 in West 4.0 mph 4.0 mph 87% 0.09 in 12 W/m2
16:05 38.8 °F 35.0 °F 29.55 in WNW 4.0 mph 7.0 mph 86% 0.07 in 14 W/m2
16:12 38.8 °F 35.0 °F 29.56 in West 4.0 mph 5.0 mph 86% 0.07 in 9 W/m2
16:18 38.6 °F 35.1 °F 29.53 in West 2.0 mph 5.0 mph 87% 0.07 in 11 W/m2
16:23 38.5 °F 35.0 °F 29.52 in West 2.0 mph 2.0 mph 87% 0.07 in 21 W/m2
16:29 38.4 °F 35.2 °F 29.52 in WNW 2.0 mph 4.0 mph 88% 0.12 in 9 W/m2
16:35 38.2 °F 35.0 °F 29.51 in NW 3.0 mph 4.0 mph 88% 0.18 in 9 W/m2
16:42 38.0 °F 34.8 °F 29.52 in West 2.0 mph 4.0 mph 88% 0.07 in 18 W/m2
16:48 37.9 °F 34.7 °F 29.51 in WNW 2.0 mph 4.0 mph 88% 0.07 in 16 W/m2
16:53 37.9 °F 34.7 °F 29.52 in West 2.0 mph 3.0 mph 88% 0.05 in 14 W/m2
16:59 37.9 °F 34.9 °F 29.53 in WSW 1.0 mph 4.0 mph 89% 0.00 in 5 W/m2
17:05 38.0 °F 35.0 °F 29.54 in SW 2.0 mph 4.0 mph 89% 0.00 in 7 W/m2
17:12 37.9 °F 34.9 °F 29.53 in WSW 1.0 mph 2.0 mph 89% 0.00 in 7 W/m2
17:18 37.8 °F 34.8 °F 29.52 in West 1.0 mph 2.0 mph 89% 0.00 in 5 W/m2
17:23 37.8 °F 34.8 °F 29.55 in SSW 1.0 mph 3.0 mph 89% 0.06 in 0 W/m2
17:29 37.8 °F 34.8 °F 29.55 in South 2.0 mph 2.0 mph 89% 0.09 in 0 W/m2
17:35 37.8 °F 34.8 °F 29.56 in South 2.0 mph 4.0 mph 89% 0.09 in 0 W/m2
17:41 37.8 °F 35.1 °F 29.56 in SW 2.0 mph 4.0 mph 90% 0.05 in 0 W/m2
17:48 38.0 °F 35.0 °F 29.57 in SW 3.0 mph 4.0 mph 89% 0.00 in 0 W/m2
17:53 38.4 °F 34.9 °F 29.56 in WSW 4.0 mph 10.0 mph 87% 0.00 in 0 W/m2
17:59 38.9 °F 34.2 °F 29.57 in WNW 6.0 mph 6.0 mph 83% 0.00 in 0 W/m2
18:05 38.8 °F 33.5 °F 29.58 in SW 6.0 mph 10.0 mph 81% 0.00 in 0 W/m2
18:12 38.7 °F 33.4 °F 29.59 in West 5.0 mph 6.0 mph 81% 0.04 in 0 W/m2
18:18 38.4 °F 33.1 °F 29.60 in WNW 4.0 mph 6.0 mph 81% 0.04 in 0 W/m2
18:23 38.3 °F 33.3 °F 29.60 in West 4.0 mph 5.0 mph 82% 0.04 in 0 W/m2
18:29 38.1 °F 33.1 °F 29.60 in WSW 2.0 mph 2.0 mph 82% 0.00 in 0 W/m2
18:35 38.1 °F 33.4 °F 29.59 in WSW 1.0 mph 3.0 mph 83% 0.00 in 0 W/m2
18:41 38.0 °F 33.3 °F 29.59 in WSW 1.0 mph 1.0 mph 83% 0.00 in 0 W/m2
18:48 37.9 °F 33.2 °F 29.60 in WSW 1.0 mph 1.0 mph 83% 0.00 in 0 W/m2
18:53 38.1 °F 33.1 °F 29.60 in SSW 2.0 mph 4.0 mph 82% 0.00 in 0 W/m2
18:59 38.1 °F 33.1 °F 29.60 in SSW 1.0 mph 1.0 mph 82% 0.00 in 0 W/m2
19:05 38.1 °F 33.1 °F 29.61 in Calm   1.0 mph 82% 0.00 in 0 W/m2
19:12 38.1 °F 33.4 °F 29.61 in SW 1.0 mph 2.0 mph 83% 0.00 in 0 W/m2
19:18 38.1 °F 33.1 °F 29.63 in SW 1.0 mph 2.0 mph 82% 0.00 in 0 W/m2
19:23 38.2 °F 33.2 °F 29.62 in West 1.0 mph 3.0 mph 82% 0.00 in 0 W/m2
19:29 38.5 °F 32.9 °F 29.61 in West 2.0 mph 2.0 mph 80% 0.00 in 0 W/m2
19:35 38.7 °F 32.4 °F 29.61 in West 2.0 mph 5.0 mph 78% 0.00 in 0 W/m2
19:42 38.8 °F 32.5 °F 29.61 in WNW 2.0 mph 4.0 mph 78% 0.00 in 0 W/m2
19:48 38.8 °F 32.5 °F 29.62 in NW 3.0 mph 6.0 mph 78% 0.00 in 0 W/m2
19:53 38.8 °F 32.5 °F 29.62 in WNW 4.0 mph 6.0 mph 78% 0.00 in 0 W/m2
19:59 38.6 °F 32.6 °F 29.63 in WNW 5.0 mph 5.0 mph 79% 0.00 in 0 W/m2
20:05 38.3 °F 32.0 °F 29.63 in NW 4.0 mph 8.0 mph 78% 0.00 in 0 W/m2
20:12 37.7 °F 31.1 °F 29.63 in North 6.0 mph 7.0 mph 77% 0.00 in 0 W/m2
20:18 37.3 °F 31.1 °F 29.63 in West 5.0 mph 8.0 mph 78% 0.00 in 0 W/m2
20:23 37.1 °F 31.2 °F 29.63 in NW 4.0 mph 5.0 mph 79% 0.00 in 0 W/m2
20:29 36.8 °F 31.2 °F 29.63 in WNW 3.0 mph 4.0 mph 80% 0.00 in 0 W/m2
20:35 36.6 °F 31.0 °F 29.63 in WNW 4.0 mph 5.0 mph 80% 0.00 in 0 W/m2
20:39 36.4 °F 30.8 °F 29.64 in WNW 4.0 mph 4.0 mph 80% 0.00 in 0 W/m2
20:45 36.3 °F 31.0 °F 29.65 in WNW 4.0 mph 4.0 mph 81% 0.00 in 0 W/m2
20:52 36.1 °F 30.8 °F 29.65 in WNW 4.0 mph 6.0 mph 81% 0.00 in 0 W/m2
20:58 36.0 °F 31.0 °F 29.65 in WNW 4.0 mph 7.0 mph 82% 0.00 in 0 W/m2
21:03 35.9 °F 31.2 °F 29.65 in NNW 3.0 mph 4.0 mph 83% 0.00 in 0 W/m2
21:09 35.7 °F 31.3 °F 29.66 in West 2.0 mph 2.0 mph 84% 0.00 in 0 W/m2
21:15 35.6 °F 31.2 °F 29.66 in WNW 2.0 mph 4.0 mph 84% 0.00 in 0 W/m2
21:22 35.5 °F 31.4 °F 29.66 in West 3.0 mph 4.0 mph 85% 0.00 in 0 W/m2
21:28 35.5 °F 31.4 °F 29.66 in WNW 3.0 mph 4.0 mph 85% 0.00 in 0 W/m2
21:33 35.5 °F 31.4 °F 29.66 in WNW 3.0 mph 3.0 mph 85% 0.00 in 0 W/m2
21:39 35.4 °F 31.3 °F 29.66 in WNW 2.0 mph 2.0 mph 85% 0.00 in 0 W/m2
21:45 35.4 °F 31.3 °F 29.67 in WNW 2.0 mph 2.0 mph 85% 0.00 in 0 W/m2
21:51 35.4 °F 31.0 °F 29.67 in WSW 2.0 mph 4.0 mph 84% 0.00 in 0 W/m2
21:58 35.6 °F 28.8 °F 29.67 in West 3.0 mph 7.0 mph 76% 0.00 in 0 W/m2
22:03 35.9 °F 25.6 °F 29.67 in West 6.0 mph 7.0 mph 66% 0.00 in 0 W/m2
22:09 35.8 °F 24.8 °F 29.68 in WNW 6.0 mph 6.0 mph 64% 0.00 in 0 W/m2
22:15 35.5 °F 24.9 °F 29.67 in WNW 5.0 mph 6.0 mph 65% 0.00 in 0 W/m2
22:22 35.4 °F 24.0 °F 29.68 in West 5.0 mph 9.0 mph 63% 0.00 in 0 W/m2
22:28 35.4 °F 23.7 °F 29.68 in WNW 5.0 mph 9.0 mph 62% 0.00 in 0 W/m2
22:33 35.4 °F 23.7 °F 29.68 in West 5.0 mph 10.0 mph 62% 0.00 in 0 W/m2
22:39 35.3 °F 24.0 °F 29.68 in SW 4.0 mph 9.0 mph 63% 0.00 in 0 W/m2
22:45 35.2 °F 23.5 °F 29.68 in WNW 6.0 mph 11.0 mph 62% 0.00 in 0 W/m2
22:51 35.1 °F 23.8 °F 29.68 in West 7.0 mph 7.0 mph 63% 0.00 in 0 W/m2
22:58 35.0 °F 24.0 °F 29.68 in WNW 6.0 mph 7.0 mph 64% 0.00 in 0 W/m2
23:03 34.9 °F 23.6 °F 29.69 in WNW 5.0 mph 7.0 mph 63% 0.00 in 0 W/m2
23:09 34.9 °F 24.3 °F 29.69 in West 5.0 mph 7.0 mph 65% 0.00 in 0 W/m2
23:15 34.3 °F 25.9 °F 29.70 in WNW 5.0 mph 7.0 mph 71% 0.00 in 0 W/m2
23:21 33.6 °F 25.9 °F 29.70 in West 6.0 mph 7.0 mph 73% 0.00 in 0 W/m2
23:28 33.2 °F 25.8 °F 29.70 in WNW 6.0 mph 7.0 mph 74% 0.00 in 0 W/m2
23:33 33.0 °F 25.9 °F 29.70 in WSW 5.0 mph 10.0 mph 75% 0.00 in 0 W/m2
23:39 33.0 °F 25.9 °F 29.70 in WNW 4.0 mph 4.0 mph 75% 0.00 in 0 W/m2
23:45 32.9 °F 25.8 °F 29.70 in West 3.0 mph 8.0 mph 75% 0.00 in 0 W/m2
23:51 32.8 °F 25.7 °F 29.70 in WNW 4.0 mph 4.0 mph 75% 0.00 in 0 W/m2
23:58 32.8 °F 25.4 °F 29.70 in WNW 5.0 mph 7.0 mph 74% 0.00 in 0 W/m2
Country Meadow, Clay, NY, USA
Compliments of Weather Underground - 2 mb